WetterOnline ( https://www.wetteronline.at )

Wetter aktuell Ahaus

Aktuelles Wetter: Ahaus (46m)

6-stündlich | Neueste Meldungen
Ortszeit Temperatur Wetter
Di, 19.11. 13:00 6.7° C bedeckt
Di, 19.11. 7:00 4.8° C Sprühregen
Di, 19.11. 1:00 6.4° C bedeckt
Mo, 18.11. 19:00 6.9° C Regen
Mo, 18.11. 13:00 6.7° C Sprühregen
Mo, 18.11. 7:00 5.3° C Sprühregen
Mo, 18.11. 1:00 4.2° C leichter Regen
So, 17.11. 19:00 3.8° C leichter Regen
Ortszeit Temperatur Wetter
Di, 19.11. 18:30 3.0° C wolkenlos
Di, 19.11. 18:20 3.0° C wolkenlos
Di, 19.11. 18:10 2.6° C fast wolkenlos
Di, 19.11. 18:00 3.2° C leicht bewölkt
Di, 19.11. 17:50 3.2° C leicht bewölkt
Di, 19.11. 17:40 3.4° C leicht bewölkt
Di, 19.11. 17:30 3.7° C wolkig
Di, 19.11. 17:00 5.2° C bedeckt
Di, 19.11. 16:30 6.4° C wolkig
Di, 19.11. 16:00 7.2° C leicht bewölkt
Di, 19.11. 15:30 7.4° C fast wolkenlos
Ortszeit Relative Feuchte Sichtweite
Di, 19.11. 13:00 90% 17 km
Di, 19.11. 7:00 97% 6 km
Di, 19.11. 1:00 89% 29 km
Mo, 18.11. 19:00 99% 2.9 km
Mo, 18.11. 13:00 100% 2.6 km
Mo, 18.11. 7:00 99% 5.0 km
Mo, 18.11. 1:00 95% 3.7 km
So, 17.11. 19:00 91% 5.0 km
Ortszeit Relative Feuchte Sichtweite
Di, 19.11. 18:30 99% 15 km
Di, 19.11. 18:20 99% -
Di, 19.11. 18:10 97% -
Di, 19.11. 18:00 97% 19 km
Di, 19.11. 17:50 97% -
Di, 19.11. 17:40 98% -
Di, 19.11. 17:30 93% 25 km
Di, 19.11. 17:00 88% 40 km
Di, 19.11. 16:30 84% 25 km
Di, 19.11. 16:00 81% 20 km
Di, 19.11. 15:30 78% 28 km
Ortszeit Niederschlagsmenge Niederschlagsart
Di, 19.11. 13:00 2 l/m2 in 6 Std. Regen
Di, 19.11. 7:00 13 l/m2 in 12 Std. Regen
Di, 19.11. 1:00 9 l/m2 in 6 Std. Regen
Mo, 18.11. 19:00 10 l/m2 in 12 Std. Regen
Mo, 18.11. 13:00 0.5 l/m2 in 6 Std. Regen
Mo, 18.11. 7:00 12 l/m2 in 12 Std. Regen
Mo, 18.11. 1:00 8 l/m2 in 6 Std. Regen
So, 17.11. 19:00 0.1 l/m2 in 12 Std. Regen
Ortszeit Niederschlagsmenge Niederschlagsart
Di, 19.11. 18:30 0.0 l/m2 in 1 Std. -
Di, 19.11. 18:20 keine Meldung -
Di, 19.11. 18:10 keine Meldung -
Di, 19.11. 18:00 0.0 l/m2 in 1 Std. -
Di, 19.11. 17:50 keine Meldung -
Di, 19.11. 17:40 keine Meldung -
Di, 19.11. 17:30 0.0 l/m2 in 1 Std. -
Di, 19.11. 17:00 0.1 l/m2 in 1 Std. Regen
Di, 19.11. 16:30 0.0 l/m2 in 1 Std. -
Di, 19.11. 16:00 0.0 l/m2 in 1 Std. -
Di, 19.11. 15:30 0.0 l/m2 in 1 Std. -
Ortszeit Stärke Spitze Richtung
km/h Bft. km/h Grad Sektor
Di, 19.11. 13:00 13 3 30 240° SW
Di, 19.11. 7:00 18 3 36 230° SW
Di, 19.11. 1:00 17 3 41 260° W
Mo, 18.11. 19:00 14 3 29 290° W
Mo, 18.11. 13:00 13 3 24 310° NW
Mo, 18.11. 7:00 14 3 36 320° NW
Mo, 18.11. 1:00 26 4 37 350° N
So, 17.11. 19:00 17 3 24 20° N
Ortszeit Stärke Spitze Richtung
km/h Bft. km/h Grad Sektor
Di, 19.11. 18:30 9 2 11 150° SO
Di, 19.11. 18:20 9 2 - 150° SO
Di, 19.11. 18:10 9 2 - 140° SO
Di, 19.11. 18:00 7 2 25 70° O
Di, 19.11. 17:50 7 2 - 70° O
Di, 19.11. 17:40 7 2 - 130° SO
Di, 19.11. 17:30 7 2 25 180° S
Di, 19.11. 17:00 7 2 25 20° N
Di, 19.11. 16:30 13 3 24 250° W
Di, 19.11. 16:00 9 2 20 240° SW
Di, 19.11. 15:30 14 3 22 250° W
Ortszeit Untergrenze Bedeckung Gattung
total tief tief mittel hoch
Di, 19.11. 13:00 270 m 8/8 8/8 - - -
Di, 19.11. 7:00 210 m 8/8 8/8 - - -
Di, 19.11. 1:00 720 m 8/8 8/8 - - -
Mo, 18.11. 19:00 240 m 7/8 7/8 - - -
Mo, 18.11. 13:00 150 m 8/8 8/8 - - -
Mo, 18.11. 7:00 150 m 8/8 8/8 - - -
Mo, 18.11. 1:00 300 m 8/8 8/8 - - -
So, 17.11. 19:00 1200 m 8/8 8/8 - - -
Ortszeit Bedeckungsgrad in Achtel und Wolkenuntergrenze
Di, 19.11. 18:30 keine Wolken
Di, 19.11. 18:20 keine Wolken
Di, 19.11. 18:10 1(1350m)
Di, 19.11. 18:00 2(1350m) 4(1800m)
Di, 19.11. 17:50 2(1350m) 4(1800m)
Di, 19.11. 17:40 2(1800m)
Di, 19.11. 17:30 4(660m) 5(1500m)
Di, 19.11. 17:00 5(810m) 7(1230m) 8(1500m)
Di, 19.11. 16:30 1(510m) 4(1110m) 5(1800m)
Di, 19.11. 16:00 2(1260m)
Di, 19.11. 15:30 1(510m)
Ortszeit Luftdruck NN (hPa) Tendenz (hPa in 3 Std.)
Di, 19.11. 13:00 1016 + 1,5
Di, 19.11. 7:00 1013 + 1,8
Di, 19.11. 1:00 1009 + 2,2
Mo, 18.11. 19:00 1006 + 0,3
Mo, 18.11. 13:00 1006 - 0,6
Mo, 18.11. 7:00 1006 + 0,2
Mo, 18.11. 1:00 1006 - 2,2
So, 17.11. 19:00 1010 - 0,8
Ortszeit Luftdruck NN (hPa) Tendenz (hPa in 3 Std.)
Di, 19.11. 18:30 1018 + 1,4
Di, 19.11. 18:20 1018 keine Meldung
Di, 19.11. 18:10 1018 keine Meldung
Di, 19.11. 18:00 1018 + 1,3
Di, 19.11. 17:50 1018 keine Meldung
Di, 19.11. 17:40 1018 keine Meldung
Di, 19.11. 17:30 1018 + 1,3
Di, 19.11. 17:00 1018 + 1,2
Di, 19.11. 16:30 1017 + 1,3
Di, 19.11. 16:00 1017 + 0,8
Di, 19.11. 15:30 1017 + 0,7
Ortszeit Schneehöhe (cm)
Di, 19.11. 13:00 0
Di, 19.11. 7:00 0
Di, 19.11. 1:00 0
Mo, 18.11. 19:00 0
Mo, 18.11. 13:00 0
Mo, 18.11. 7:00 0
Mo, 18.11. 1:00 0
So, 17.11. 19:00 0
Ortszeit Schneehöhe (cm)
Di, 19.11. 18:30 0
Di, 19.11. 18:20 0
Di, 19.11. 18:10 0
Di, 19.11. 18:00 0
Di, 19.11. 17:50 0
Di, 19.11. 17:40 0
Di, 19.11. 17:30 0
Di, 19.11. 17:00 0
Di, 19.11. 16:30 0
Di, 19.11. 16:00 0
Di, 19.11. 15:30 0
Link zu dieser Seite / Seite empfehlen

Das Wetter in ...